createdAt,value
2022-09-15T00:02:17.766Z,5.03
2022-09-15T00:04:44.150Z,4.97
2022-09-15T00:07:10.955Z,4.82
2022-09-15T00:09:37.454Z,4.45
2022-09-15T00:12:03.955Z,3.80
2022-09-15T00:14:30.347Z,4.78
2022-09-15T00:16:56.657Z,4.82
2022-09-15T00:19:22.944Z,5.28
2022-09-15T00:21:49.232Z,4.43
2022-09-15T00:24:15.544Z,4.68
2022-09-15T00:26:41.907Z,4.60
2022-09-15T00:29:10.665Z,4.90
2022-09-15T00:31:36.944Z,4.50
2022-09-15T00:34:03.255Z,4.65
2022-09-15T00:36:29.832Z,4.95
2022-09-15T00:38:56.529Z,5.38
2022-09-15T00:41:23.349Z,5.32
2022-09-15T00:43:54.422Z,5.95
2022-09-15T00:46:23.874Z,6.10
2022-09-15T00:49:20.432Z,5.88
2022-09-15T00:51:58.824Z,5.18
2022-09-15T00:54:37.532Z,5.90
2022-09-15T00:57:05.973Z,5.88
2022-09-15T00:59:33.943Z,5.53
2022-09-15T01:02:07.129Z,5.47
2022-09-15T01:04:33.465Z,5.80
2022-09-15T01:07:02.743Z,6.35
2022-09-15T01:09:33.085Z,7.93
2022-09-15T01:11:59.582Z,5.82
2022-09-15T01:14:25.892Z,5.50
2022-09-15T01:16:58.319Z,5.05
2022-09-15T01:19:32.212Z,4.32
2022-09-15T01:22:13.665Z,4.32
2022-09-15T01:24:58.703Z,4.15
2022-09-15T01:27:41.989Z,4.15
2022-09-15T01:30:16.931Z,4.97
2022-09-15T01:33:05.198Z,5.13
2022-09-15T01:35:49.305Z,3.78
2022-09-15T01:38:27.762Z,4.00
2022-09-15T01:40:57.069Z,3.35
2022-09-15T01:43:24.445Z,2.70
2022-09-15T01:45:51.273Z,1.35
2022-09-15T01:48:22.151Z,1.30
2022-09-15T01:50:51.041Z,0.95
2022-09-15T01:53:18.894Z,0.85
2022-09-15T01:55:54.460Z,0.98
2022-09-15T01:58:21.047Z,0.77
2022-09-15T02:00:51.134Z,1.10
2022-09-15T02:03:27.381Z,1.05
2022-09-15T02:06:01.926Z,1.00
2022-09-15T02:08:31.213Z,1.20
2022-09-15T02:11:03.203Z,1.10
2022-09-15T02:13:48.549Z,1.00
2022-09-15T02:16:22.825Z,1.00
2022-09-15T02:18:49.397Z,1.00
2022-09-15T02:21:23.390Z,1.17
2022-09-15T02:23:53.769Z,0.90
2022-09-15T02:26:24.405Z,1.00
2022-09-15T02:28:52.104Z,1.08
2022-09-15T02:31:20.499Z,1.20
2022-09-15T02:33:53.805Z,1.15
2022-09-15T02:36:20.768Z,2.05
2022-09-15T02:38:49.877Z,2.13
2022-09-15T02:41:17.087Z,2.50
2022-09-15T02:43:46.990Z,2.10
2022-09-15T02:46:14.094Z,2.22
2022-09-15T02:48:40.528Z,2.20
2022-09-15T02:51:06.845Z,1.85
2022-09-15T02:53:33.252Z,1.70
2022-09-15T02:55:59.537Z,1.80
2022-09-15T02:58:25.895Z,2.20
2022-09-15T03:00:52.927Z,2.42
2022-09-15T03:03:21.885Z,3.45
2022-09-15T03:05:48.173Z,4.07
2022-09-15T03:08:14.436Z,4.10
2022-09-15T03:10:40.700Z,5.78
2022-09-15T03:13:08.525Z,7.57
2022-09-15T03:15:34.894Z,8.70
2022-09-15T03:18:01.909Z,9.80
2022-09-15T03:20:28.559Z,11.65
2022-09-15T03:22:56.001Z,12.00
2022-09-15T03:25:22.559Z,13.57
2022-09-15T03:27:48.820Z,12.90
2022-09-15T03:30:15.165Z,13.63
2022-09-15T03:32:41.476Z,13.98
2022-09-15T03:35:08.076Z,15.10
2022-09-15T03:37:34.484Z,17.17
2022-09-15T03:40:00.862Z,18.73
2022-09-15T03:42:27.185Z,19.65
2022-09-15T03:44:53.477Z,21.40
2022-09-15T03:47:19.728Z,22.23
2022-09-15T03:49:46.061Z,23.48
2022-09-15T03:52:12.317Z,23.92
2022-09-15T03:54:38.584Z,22.60
2022-09-15T03:57:04.904Z,23.00
2022-09-15T03:59:31.175Z,23.65
2022-09-15T04:01:57.507Z,23.02
2022-09-15T04:04:23.840Z,23.67
2022-09-15T04:06:50.110Z,23.90
2022-09-15T04:09:16.366Z,23.63
2022-09-15T04:11:42.762Z,22.80
2022-09-15T04:14:09.085Z,22.90
2022-09-15T04:16:35.498Z,23.55
2022-09-15T04:19:02.238Z,20.83
2022-09-15T04:21:28.864Z,19.45
2022-09-15T04:23:55.145Z,18.85
2022-09-15T04:26:27.329Z,19.00
2022-09-15T04:28:53.672Z,19.35
2022-09-15T04:31:20.329Z,19.17
2022-09-15T04:33:47.098Z,20.02
2022-09-15T04:36:15.130Z,20.67
2022-09-15T04:38:42.338Z,18.52
2022-09-15T04:41:09.160Z,16.73
2022-09-15T04:43:35.449Z,15.82
2022-09-15T04:46:01.725Z,16.13
2022-09-15T04:48:28.033Z,15.25
2022-09-15T04:50:54.658Z,13.27
2022-09-15T04:53:20.953Z,13.02
2022-09-15T04:55:47.241Z,11.00
2022-09-15T04:58:13.768Z,10.00
2022-09-15T05:00:43.523Z,9.57
2022-09-15T05:03:10.558Z,6.28
2022-09-15T05:05:36.911Z,6.70
2022-09-15T05:08:03.518Z,6.97
2022-09-15T05:10:29.793Z,7.57
2022-09-15T05:12:56.138Z,7.22
2022-09-15T05:15:24.051Z,6.32
2022-09-15T05:17:50.351Z,6.30
2022-09-15T05:20:17.548Z,7.28
2022-09-15T05:22:44.193Z,6.78
2022-09-15T05:25:10.934Z,6.28
2022-09-15T05:27:39.227Z,6.75
2022-09-15T05:30:35.165Z,6.30
2022-09-15T05:32:52.846Z,6.57
2022-09-15T05:35:19.106Z,6.13
2022-09-15T05:37:45.538Z,6.57
2022-09-15T05:40:12.179Z,6.15
2022-09-15T05:42:38.486Z,6.30
2022-09-15T05:45:04.922Z,6.05
2022-09-15T05:47:31.189Z,6.65
2022-09-15T05:49:57.525Z,6.63
2022-09-15T05:52:23.845Z,6.38
2022-09-15T05:54:50.129Z,6.40
2022-09-15T05:57:16.412Z,6.55
2022-09-15T05:59:43.825Z,6.75
2022-09-15T06:02:10.687Z,7.15
2022-09-15T06:04:37.041Z,7.97
2022-09-15T06:07:03.323Z,8.38
2022-09-15T06:09:29.606Z,7.97
2022-09-15T06:11:55.897Z,8.35
2022-09-15T06:14:22.157Z,7.68
2022-09-15T06:16:48.477Z,7.93
2022-09-15T06:19:14.747Z,8.20
2022-09-15T06:21:41.037Z,8.45
2022-09-15T06:24:07.575Z,7.25
2022-09-15T06:26:34.260Z,7.63
2022-09-15T06:29:01.524Z,7.65
2022-09-15T06:31:28.983Z,7.43
2022-09-15T06:33:56.073Z,8.30
2022-09-15T06:36:23.653Z,8.00
2022-09-15T06:38:50.067Z,7.80
2022-09-15T06:41:16.593Z,7.85
2022-09-15T06:43:43.562Z,7.95
2022-09-15T06:46:11.185Z,7.72
2022-09-15T06:48:38.190Z,6.55
2022-09-15T06:51:05.838Z,6.50
2022-09-15T06:53:32.855Z,6.00
2022-09-15T06:56:06.931Z,6.13
2022-09-15T07:01:03.982Z,6.47
2022-09-15T07:03:30.582Z,6.10
2022-09-15T07:05:57.044Z,6.32
2022-09-15T07:08:23.330Z,5.53
2022-09-15T07:10:49.797Z,5.75
2022-09-15T07:13:16.106Z,5.30
2022-09-15T07:15:49.114Z,5.75
2022-09-15T07:18:15.429Z,6.07
2022-09-15T07:20:41.853Z,5.63
2022-09-15T07:23:08.173Z,5.63
2022-09-15T07:25:34.545Z,5.70
2022-09-15T07:28:00.891Z,5.05
2022-09-15T07:30:27.175Z,4.95
2022-09-15T07:32:53.953Z,5.30
2022-09-15T07:35:21.688Z,5.47
2022-09-15T07:37:48.523Z,5.70
2022-09-15T07:40:15.014Z,5.68
2022-09-15T07:42:44.841Z,5.60
2022-09-15T07:45:11.681Z,5.72
2022-09-15T07:47:38.097Z,5.40
2022-09-15T07:50:05.096Z,5.30
2022-09-15T07:52:31.395Z,5.85
2022-09-15T07:54:57.648Z,5.95
2022-09-15T07:57:23.934Z,5.68
2022-09-15T07:59:50.297Z,6.00
2022-09-15T08:02:20.699Z,6.95
2022-09-15T08:04:47.006Z,5.88
2022-09-15T08:07:13.550Z,5.90
2022-09-15T08:09:40.186Z,5.88
2022-09-15T08:12:07.175Z,6.10
2022-09-15T08:14:33.909Z,7.22
2022-09-15T08:17:01.073Z,7.47
2022-09-15T08:19:27.926Z,7.90
2022-09-15T08:21:54.382Z,8.63
2022-09-15T08:24:22.479Z,8.98
2022-09-15T08:26:49.149Z,9.13
2022-09-15T08:29:15.451Z,9.27
2022-09-15T08:31:41.810Z,9.63
2022-09-15T08:34:11.061Z,8.85
2022-09-15T08:36:37.438Z,8.02
2022-09-15T08:39:04.329Z,8.45
2022-09-15T08:41:35.317Z,7.75
2022-09-15T08:44:19.587Z,7.80
2022-09-15T08:46:58.131Z,8.20
2022-09-15T08:49:50.006Z,7.88
2022-09-15T08:52:23.169Z,7.90
2022-09-15T08:54:51.090Z,7.85
2022-09-15T08:57:19.810Z,7.38
2022-09-15T08:59:46.068Z,6.90
2022-09-15T09:02:12.306Z,6.45
2022-09-15T09:04:47.720Z,7.00
2022-09-15T09:07:13.969Z,6.68
2022-09-15T09:09:49.529Z,7.43
2022-09-15T09:12:34.586Z,6.53
2022-09-15T09:15:05.078Z,6.00
2022-09-15T09:17:50.264Z,6.30
2022-09-15T09:20:24.502Z,7.25
2022-09-15T09:22:53.045Z,8.20
2022-09-15T09:25:27.573Z,8.10
2022-09-15T09:27:55.396Z,8.20
2022-09-15T09:30:22.920Z,9.40
2022-09-15T09:32:54.199Z,8.35
2022-09-15T09:35:39.373Z,8.50
2022-09-15T09:38:05.784Z,7.13
2022-09-15T09:40:33.660Z,6.38
2022-09-15T09:43:00.658Z,6.63
2022-09-15T09:45:26.973Z,6.80
2022-09-15T09:47:59.482Z,7.18
2022-09-15T09:50:43.082Z,7.53
2022-09-15T09:53:29.852Z,8.80
2022-09-15T09:56:15.461Z,8.00
2022-09-15T09:58:41.810Z,8.98
2022-09-15T10:01:12.465Z,7.75
2022-09-15T10:03:39.065Z,8.10
2022-09-15T10:06:16.602Z,8.60
2022-09-15T10:08:53.660Z,7.68
2022-09-15T10:11:20.080Z,7.95
2022-09-15T10:13:50.778Z,7.10
2022-09-15T10:16:18.178Z,7.07
2022-09-15T10:18:44.888Z,7.10
2022-09-15T10:21:13.348Z,6.43
2022-09-15T10:23:39.649Z,6.72
2022-09-15T10:26:15.019Z,7.13
2022-09-15T10:28:41.348Z,7.40
2022-09-15T10:31:14.015Z,7.05
2022-09-15T10:33:50.389Z,8.15
2022-09-15T10:36:36.929Z,7.68
2022-09-15T10:39:10.664Z,8.00
2022-09-15T10:41:40.396Z,8.30
2022-09-15T10:44:12.827Z,8.23
2022-09-15T10:46:46.061Z,8.57
2022-09-15T10:49:26.168Z,8.15
2022-09-15T10:51:52.449Z,8.45
2022-09-15T10:54:26.056Z,8.90
2022-09-15T10:59:34.061Z,9.13
2022-09-15T11:02:09.520Z,9.55
2022-09-15T11:04:38.889Z,9.30
2022-09-15T11:07:13.690Z,9.13
2022-09-15T11:09:45.200Z,8.40
2022-09-15T11:12:30.268Z,10.23
2022-09-15T11:15:15.314Z,8.63
2022-09-15T11:17:44.670Z,8.45
2022-09-15T11:20:14.092Z,7.95
2022-09-15T11:22:49.487Z,8.57
2022-09-15T11:25:20.605Z,9.10
2022-09-15T11:27:59.900Z,8.95
2022-09-15T11:30:31.340Z,8.82
2022-09-15T11:33:16.424Z,7.82
2022-09-15T11:35:46.213Z,8.40
2022-09-15T11:38:31.438Z,7.43
2022-09-15T11:41:16.476Z,6.50
2022-09-15T11:43:46.748Z,6.60
2022-09-15T11:46:15.358Z,6.80
2022-09-15T11:48:47.216Z,5.70
2022-09-15T11:51:15.268Z,6.90
2022-09-15T11:53:47.981Z,6.38
2022-09-15T11:56:26.125Z,6.90
2022-09-15T11:58:52.390Z,7.28
2022-09-15T12:01:20.077Z,6.93
2022-09-15T12:04:01.793Z,6.75
2022-09-15T12:06:46.279Z,6.35
2022-09-15T12:09:13.961Z,6.20
2022-09-15T12:11:45.234Z,6.13
2022-09-15T12:14:16.557Z,5.63
2022-09-15T12:16:43.753Z,6.78
2022-09-15T12:19:17.437Z,6.35
2022-09-15T12:21:43.923Z,6.38
2022-09-15T12:24:25.588Z,6.13
2022-09-15T12:26:51.995Z,6.00
2022-09-15T12:29:21.321Z,6.30
2022-09-15T12:31:47.650Z,6.28
2022-09-15T12:34:35.184Z,6.03
2022-09-15T12:37:11.263Z,5.72
2022-09-15T12:39:39.932Z,5.68
2022-09-15T12:42:08.704Z,6.47
2022-09-15T12:44:47.752Z,5.82
2022-09-15T12:47:19.741Z,5.18
2022-09-15T12:49:47.746Z,5.30
2022-09-15T12:52:14.841Z,5.40
2022-09-15T12:54:42.390Z,5.22
2022-09-15T12:57:19.929Z,5.20
2022-09-15T12:59:46.200Z,5.93
2022-09-15T13:02:32.509Z,5.70
2022-09-15T13:04:58.951Z,5.57
2022-09-15T13:07:33.382Z,5.30
2022-09-15T13:10:08.987Z,5.28
2022-09-15T13:12:37.468Z,6.15
2022-09-15T13:15:05.120Z,4.80
2022-09-15T13:17:33.051Z,5.05
2022-09-15T13:20:01.922Z,5.00
2022-09-15T13:22:35.779Z,8.95
2022-09-15T13:25:11.219Z,8.32
2022-09-15T13:27:39.414Z,6.25
2022-09-15T13:30:15.035Z,5.10
2022-09-15T13:32:53.439Z,4.72
2022-09-15T13:35:27.244Z,4.30
2022-09-15T13:38:21.217Z,4.30
2022-09-15T13:41:08.069Z,4.50
2022-09-15T13:43:53.302Z,4.25
2022-09-15T13:46:19.660Z,4.45
2022-09-15T13:48:50.144Z,3.92
2022-09-15T13:51:21.940Z,4.00
2022-09-15T13:53:50.530Z,4.40
2022-09-15T13:56:21.519Z,5.32
2022-09-15T13:59:00.106Z,4.50
2022-09-15T14:01:32.583Z,4.22
2022-09-15T14:04:00.698Z,3.83
2022-09-15T14:06:35.205Z,4.00
2022-09-15T14:09:03.918Z,3.78
2022-09-15T14:11:34.603Z,3.95
2022-09-15T14:14:01.322Z,3.80
2022-09-15T14:16:27.935Z,3.47
2022-09-15T14:18:55.665Z,4.10
2022-09-15T14:21:23.237Z,4.00
2022-09-15T14:23:50.745Z,3.90
2022-09-15T14:26:18.649Z,3.80
2022-09-15T14:28:52.256Z,4.43
2022-09-15T14:31:26.807Z,4.80
2022-09-15T14:33:53.406Z,4.53
2022-09-15T14:36:25.256Z,4.20
2022-09-15T14:39:08.684Z,4.43
2022-09-15T14:41:36.349Z,4.60
2022-09-15T14:45:52.535Z,4.28
2022-09-15T14:47:12.251Z,4.65
2022-09-15T14:49:38.556Z,5.10
2022-09-15T14:52:05.225Z,5.22
2022-09-15T14:54:34.066Z,3.90
2022-09-15T14:57:01.532Z,3.95
2022-09-15T14:59:31.367Z,4.40
2022-09-15T15:02:03.393Z,4.05
2022-09-15T15:04:39.352Z,4.75
2022-09-15T15:07:07.629Z,3.70
2022-09-15T15:09:39.943Z,3.60
2022-09-15T15:12:10.923Z,3.35
2022-09-15T15:14:37.266Z,4.13
2022-09-15T15:17:07.944Z,3.80
2022-09-15T15:19:38.429Z,3.00
2022-09-15T15:22:14.081Z,3.30
2022-09-15T15:24:44.510Z,3.20
2022-09-15T15:27:29.556Z,3.30
2022-09-15T15:29:55.921Z,3.50
2022-09-15T15:32:22.961Z,2.97
2022-09-15T15:34:53.893Z,2.60
2022-09-15T15:37:20.172Z,2.78
2022-09-15T15:39:46.606Z,2.90
2022-09-15T15:42:14.830Z,2.72
2022-09-15T15:44:58.882Z,2.70
2022-09-15T15:47:25.486Z,2.97
2022-09-15T15:50:14.855Z,2.80
2022-09-15T15:52:41.570Z,2.63
2022-09-15T15:55:08.337Z,2.70
2022-09-15T15:57:38.170Z,2.90
2022-09-15T16:00:10.590Z,2.80
2022-09-15T16:02:36.883Z,2.83
2022-09-15T16:05:03.223Z,2.85
2022-09-15T16:07:33.458Z,2.50
2022-09-15T16:10:00.196Z,2.72
2022-09-15T16:12:26.523Z,2.70
2022-09-15T16:14:53.436Z,2.60
2022-09-15T16:17:19.692Z,2.70
2022-09-15T16:19:45.973Z,2.95
2022-09-15T16:22:17.752Z,2.90
2022-09-15T16:24:44.405Z,2.53
2022-09-15T16:27:13.656Z,2.80
2022-09-15T16:29:39.943Z,2.92
2022-09-15T16:32:06.987Z,2.58
2022-09-15T16:34:33.317Z,2.67
2022-09-15T16:36:59.674Z,2.63
2022-09-15T16:39:25.932Z,3.03
2022-09-15T16:41:52.679Z,2.70
2022-09-15T16:44:19.419Z,2.60
2022-09-15T16:46:45.797Z,2.70
2022-09-15T16:49:12.125Z,2.72
2022-09-15T16:51:38.388Z,2.78
2022-09-15T16:54:09.853Z,3.10
2022-09-15T16:56:36.148Z,2.40
2022-09-15T16:59:02.544Z,2.72
2022-09-15T17:01:29.051Z,2.83
2022-09-15T17:03:55.769Z,2.67
2022-09-15T17:06:22.226Z,2.88
2022-09-15T17:08:48.753Z,2.60
2022-09-15T17:11:17.109Z,2.70
2022-09-15T17:13:44.030Z,2.60
2022-09-15T17:16:10.873Z,2.42
2022-09-15T17:18:37.177Z,2.50
2022-09-15T17:21:03.514Z,2.80
2022-09-15T17:23:40.088Z,2.75
2022-09-15T17:26:10.466Z,2.72
2022-09-15T17:28:37.158Z,2.72
2022-09-15T17:31:05.076Z,2.70
2022-09-15T17:33:31.948Z,2.97
2022-09-15T17:35:59.028Z,2.55
2022-09-15T17:38:25.610Z,2.88
2022-09-15T17:40:52.543Z,2.83
2022-09-15T17:43:19.602Z,2.90
2022-09-15T17:45:46.404Z,2.65
2022-09-15T17:48:12.666Z,2.63
2022-09-15T17:50:39.749Z,2.50
2022-09-15T17:53:12.675Z,2.60
2022-09-15T17:55:39.258Z,2.75
2022-09-15T17:58:05.637Z,2.50
2022-09-15T18:00:33.895Z,2.60
2022-09-15T18:03:01.759Z,2.55
2022-09-15T18:05:29.677Z,2.70
2022-09-15T18:07:56.881Z,2.67
2022-09-15T18:10:24.898Z,2.70
2022-09-15T18:12:55.006Z,3.05
2022-09-15T18:15:32.222Z,2.80
2022-09-15T18:18:00.388Z,3.00
2022-09-15T18:20:28.317Z,2.88
2022-09-15T18:22:54.909Z,2.97
2022-09-15T18:25:28.131Z,3.45
2022-09-15T18:27:55.145Z,3.40
2022-09-15T18:30:22.567Z,2.92
2022-09-15T18:32:49.483Z,3.70
2022-09-15T18:35:18.651Z,3.47
2022-09-15T18:37:45.686Z,3.33
2022-09-15T18:40:13.588Z,3.67
2022-09-15T18:42:40.354Z,3.40
2022-09-15T18:45:07.564Z,3.50
2022-09-15T18:47:33.925Z,3.30
2022-09-15T18:50:00.706Z,3.22
2022-09-15T18:52:27.127Z,2.90
2022-09-15T18:54:53.514Z,2.88
2022-09-15T18:57:19.992Z,3.03
2022-09-15T18:59:47.173Z,3.08
2022-09-15T19:02:14.415Z,2.63
2022-09-15T19:04:41.466Z,2.95
2022-09-15T19:07:08.227Z,2.70
2022-09-15T19:09:34.505Z,2.80
2022-09-15T19:12:00.927Z,2.33
2022-09-15T19:14:27.601Z,2.30
2022-09-15T19:16:57.989Z,2.20
2022-09-15T19:19:25.236Z,1.90
2022-09-15T19:21:51.522Z,2.50
2022-09-15T19:24:17.786Z,2.20
2022-09-15T19:26:46.570Z,2.17
2022-09-15T19:29:13.261Z,1.98
2022-09-15T19:31:42.012Z,2.30
2022-09-15T19:34:08.808Z,2.25
2022-09-15T19:36:35.235Z,1.90
2022-09-15T19:39:03.282Z,1.90
2022-09-15T19:41:29.967Z,2.00
2022-09-15T19:43:56.729Z,2.00
2022-09-15T19:46:24.138Z,1.98
2022-09-15T19:48:50.905Z,2.05
2022-09-15T19:51:17.630Z,2.05
2022-09-15T19:53:44.443Z,1.80
2022-09-15T19:56:15.426Z,1.98
2022-09-15T19:58:41.901Z,1.90
2022-09-15T20:01:09.099Z,2.10
2022-09-15T20:03:35.393Z,1.98
2022-09-15T20:06:04.186Z,2.38
2022-09-15T20:08:30.454Z,1.90
2022-09-15T20:10:56.724Z,2.40
2022-09-15T20:13:23.118Z,2.20
2022-09-15T20:15:56.787Z,2.13
2022-09-15T20:18:23.437Z,2.03
2022-09-15T20:20:49.758Z,1.90
2022-09-15T20:23:16.287Z,1.90
2022-09-15T20:25:42.646Z,2.13
2022-09-15T20:28:08.993Z,1.90
2022-09-15T20:30:35.292Z,1.90
2022-09-15T20:33:01.574Z,2.17
2022-09-15T20:35:27.913Z,2.20
2022-09-15T20:37:54.291Z,2.15
2022-09-15T20:40:20.578Z,2.17
2022-09-15T20:42:47.577Z,2.47
2022-09-15T20:45:13.967Z,2.08
2022-09-15T20:47:40.234Z,2.58
2022-09-15T20:50:06.719Z,2.08
2022-09-15T20:52:38.047Z,2.05
2022-09-15T20:55:04.941Z,2.60
2022-09-15T20:57:31.853Z,2.05
2022-09-15T20:59:58.165Z,2.38
2022-09-15T21:02:24.564Z,2.25
2022-09-15T21:04:50.894Z,2.55
2022-09-15T21:07:17.226Z,2.17
2022-09-15T21:09:44.510Z,2.20
2022-09-15T21:12:10.821Z,2.22
2022-09-15T21:14:37.103Z,2.00
2022-09-15T21:17:03.452Z,2.33
2022-09-15T21:19:30.846Z,2.10
2022-09-15T21:21:58.406Z,2.00
2022-09-15T21:24:24.713Z,2.00
2022-09-15T21:27:09.740Z,2.38
2022-09-15T21:29:35.998Z,2.08
2022-09-15T21:32:02.510Z,2.08
2022-09-15T21:34:28.903Z,2.20
2022-09-15T21:36:55.183Z,2.40
2022-09-15T21:39:21.476Z,2.15
2022-09-15T21:41:47.756Z,2.30
2022-09-15T21:44:14.035Z,1.73
2022-09-15T21:46:40.367Z,2.10
2022-09-15T21:49:06.700Z,2.00
2022-09-15T21:51:33.220Z,1.85
2022-09-15T21:53:59.896Z,2.05
2022-09-15T21:56:27.383Z,2.10
2022-09-15T21:58:54.230Z,1.98
2022-09-15T22:01:22.163Z,1.92
2022-09-15T22:03:49.731Z,1.92
2022-09-15T22:06:17.188Z,2.17
2022-09-15T22:08:44.118Z,2.00
2022-09-15T22:11:11.050Z,2.42
2022-09-15T22:13:39.065Z,1.67
2022-09-15T22:16:07.175Z,1.70
2022-09-15T22:18:35.577Z,1.92
2022-09-15T22:21:09.499Z,1.88
2022-09-15T22:23:36.242Z,1.90
2022-09-15T22:26:03.783Z,1.98
2022-09-15T22:28:31.143Z,2.10
2022-09-15T22:31:01.654Z,2.13
2022-09-15T22:33:28.181Z,2.10
2022-09-15T22:35:54.619Z,2.17
2022-09-15T22:38:21.084Z,2.33
2022-09-15T22:40:47.483Z,2.15
2022-09-15T22:43:13.788Z,2.00
2022-09-15T22:45:40.092Z,2.00
2022-09-15T22:48:06.760Z,2.22
2022-09-15T22:50:33.215Z,2.00
2022-09-15T22:52:59.512Z,2.33
2022-09-15T22:55:25.813Z,2.10
2022-09-15T22:57:52.105Z,2.13
2022-09-15T23:00:18.419Z,2.63
2022-09-15T23:02:44.689Z,2.22
2022-09-15T23:05:10.988Z,2.40
2022-09-15T23:07:37.336Z,2.25
2022-09-15T23:10:03.915Z,2.50
2022-09-15T23:12:30.740Z,1.88
2022-09-15T23:14:57.052Z,2.22
2022-09-15T23:17:23.522Z,2.05
2022-09-15T23:19:49.828Z,2.17
2022-09-15T23:22:16.147Z,1.90
2022-09-15T23:24:42.431Z,1.90
2022-09-15T23:27:08.816Z,1.70
2022-09-15T23:29:35.075Z,1.95
2022-09-15T23:32:01.457Z,2.03
2022-09-15T23:34:27.771Z,1.80
2022-09-15T23:36:54.138Z,1.98
2022-09-15T23:39:20.458Z,2.33
2022-09-15T23:41:46.725Z,1.85
2022-09-15T23:44:13.027Z,1.80
2022-09-15T23:46:39.409Z,1.85
2022-09-15T23:49:05.837Z,1.90
2022-09-15T23:51:32.182Z,1.83
2022-09-15T23:53:58.530Z,1.98
2022-09-15T23:56:24.825Z,1.98
2022-09-15T23:58:51.108Z,1.67
